createdAt,value
2023-01-25T04:48:28.361Z,3.90
2023-01-25T04:50:55.119Z,4.00
2023-01-25T04:53:21.873Z,4.10
2023-01-25T04:55:48.833Z,4.10
2023-01-25T04:58:15.825Z,3.90
2023-01-25T05:00:42.473Z,4.00
2023-01-25T05:03:09.120Z,4.00
2023-01-25T05:05:35.720Z,4.00
2023-01-25T05:08:02.332Z,4.10
2023-01-25T05:10:28.931Z,4.10
2023-01-25T05:12:55.547Z,4.10
2023-01-25T05:15:22.177Z,4.00
2023-01-25T05:17:48.846Z,4.00
2023-01-25T05:20:15.639Z,3.90
2023-01-25T05:22:42.245Z,4.00
2023-01-25T05:25:29.069Z,3.80
2023-01-25T05:27:55.753Z,3.80
2023-01-25T05:30:22.376Z,3.90
2023-01-25T05:32:50.498Z,4.00
2023-01-25T05:35:17.265Z,4.10
2023-01-25T05:37:43.876Z,4.20
2023-01-25T05:40:11.163Z,4.10
2023-01-25T05:42:37.802Z,4.00
2023-01-25T05:45:04.800Z,4.10
2023-01-25T05:47:31.424Z,4.20
2023-01-25T05:49:58.052Z,4.30
2023-01-25T05:52:24.808Z,4.40
2023-01-25T05:54:51.439Z,4.30
2023-01-25T05:57:18.116Z,4.30
2023-01-25T05:59:44.790Z,4.30
2023-01-25T06:02:11.474Z,4.40
2023-01-25T06:04:38.049Z,4.40
2023-01-25T06:07:04.676Z,4.40
2023-01-25T06:09:31.329Z,4.30
2023-01-25T06:11:57.989Z,4.30
2023-01-25T06:14:24.867Z,4.10
2023-01-25T06:16:51.489Z,4.30
2023-01-25T06:19:18.103Z,4.30
2023-01-25T06:21:44.730Z,4.30
2023-01-25T06:24:11.490Z,4.40
2023-01-25T06:26:38.204Z,4.50
2023-01-25T06:29:06.867Z,4.30
2023-01-25T06:31:34.753Z,4.40
2023-01-25T06:34:04.475Z,4.40
2023-01-25T06:36:31.207Z,4.40
2023-01-25T06:38:58.110Z,4.40
2023-01-25T06:41:24.738Z,4.40
2023-01-25T06:43:51.798Z,4.40
2023-01-25T06:46:18.811Z,4.40
2023-01-25T06:48:45.472Z,4.40
2023-01-25T06:51:14.300Z,4.40
2023-01-25T06:53:43.621Z,4.30
2023-01-25T06:56:13.480Z,4.30
2023-01-25T06:58:40.489Z,4.40
2023-01-25T07:01:12.772Z,4.20
2023-01-25T07:03:39.652Z,4.20
2023-01-25T07:06:07.972Z,4.00
2023-01-25T07:08:35.683Z,4.00
2023-01-25T07:11:04.745Z,4.00
2023-01-25T07:13:33.236Z,3.90
2023-01-25T07:16:02.654Z,3.90
2023-01-25T07:18:30.438Z,4.00
2023-01-25T07:21:05.079Z,4.10
2023-01-25T07:23:33.091Z,4.30
2023-01-25T07:26:00.274Z,4.30
2023-01-25T07:28:27.525Z,4.40
2023-01-25T07:30:54.206Z,4.30
2023-01-25T07:33:20.906Z,4.40
2023-01-25T07:35:48.146Z,4.30
2023-01-25T07:38:14.964Z,4.50
2023-01-25T07:40:41.615Z,4.20
2023-01-25T07:43:08.273Z,4.30
2023-01-25T07:45:35.052Z,4.30
2023-01-25T07:48:10.858Z,4.30
2023-01-25T07:50:37.584Z,4.30
2023-01-25T07:53:04.347Z,4.40
2023-01-25T07:55:31.175Z,4.20
2023-01-25T07:57:57.783Z,4.30
2023-01-25T08:00:25.111Z,4.30
2023-01-25T08:02:52.855Z,4.10
2023-01-25T08:05:19.792Z,4.30
2023-01-25T08:07:48.110Z,4.30
2023-01-25T08:10:15.239Z,4.30
2023-01-25T08:12:46.203Z,4.10
2023-01-25T08:15:14.179Z,4.10
2023-01-25T08:17:40.816Z,4.10
2023-01-25T08:20:08.773Z,4.10
2023-01-25T08:22:35.703Z,4.20
2023-01-25T08:25:03.410Z,4.30
2023-01-25T08:27:31.123Z,4.30
2023-01-25T08:29:57.808Z,4.40
2023-01-25T08:32:24.576Z,4.30
2023-01-25T08:34:51.281Z,4.40
2023-01-25T08:37:17.875Z,4.50
2023-01-25T08:39:44.504Z,4.60
2023-01-25T08:42:11.125Z,4.60
2023-01-25T08:44:37.761Z,4.70
2023-01-25T08:47:04.467Z,4.60
2023-01-25T08:49:34.348Z,4.70
2023-01-25T08:52:01.144Z,4.60
2023-01-25T08:54:27.803Z,4.60
2023-01-25T08:56:54.503Z,4.60
2023-01-25T08:59:21.116Z,4.60
2023-01-25T09:01:47.804Z,4.50
2023-01-25T09:04:14.516Z,4.60
2023-01-25T09:06:41.125Z,4.80
2023-01-25T09:09:08.558Z,4.70
2023-01-25T09:11:37.110Z,4.60
2023-01-25T09:14:04.679Z,4.70
2023-01-25T09:16:31.620Z,4.70
2023-01-25T09:19:00.363Z,4.40
2023-01-25T09:21:28.105Z,4.10
2023-01-25T09:24:10.701Z,4.10
2023-01-25T09:26:40.886Z,3.90
2023-01-25T09:29:10.737Z,3.80
2023-01-25T09:31:43.853Z,3.70
2023-01-25T09:34:12.032Z,3.50
2023-01-25T09:36:38.696Z,3.50
2023-01-25T09:39:05.395Z,3.80
2023-01-25T09:41:58.409Z,3.90
2023-01-25T09:45:02.068Z,4.10
2023-01-25T09:47:43.517Z,4.30
2023-01-25T09:50:28.160Z,4.40
2023-01-25T09:53:13.579Z,4.30
2023-01-25T09:55:41.501Z,4.30
2023-01-25T09:58:14.592Z,4.30
2023-01-25T10:00:50.925Z,4.40
2023-01-25T10:03:23.410Z,4.40
2023-01-25T10:05:57.497Z,4.40
2023-01-25T10:08:42.851Z,4.40
2023-01-25T10:11:28.027Z,4.30
2023-01-25T10:13:56.345Z,3.90
2023-01-25T10:16:26.241Z,4.00
2023-01-25T10:19:03.788Z,4.20
2023-01-25T10:21:48.150Z,4.30
2023-01-25T10:24:59.009Z,4.50
2023-01-25T10:27:53.908Z,4.60
2023-01-25T10:30:26.672Z,4.60
2023-01-25T10:32:57.765Z,4.60
2023-01-25T10:35:38.947Z,4.60
2023-01-25T10:38:49.084Z,4.60
2023-01-25T10:41:28.389Z,4.60
2023-01-25T10:44:21.142Z,4.60
2023-01-25T10:46:51.196Z,4.60
2023-01-25T10:49:35.305Z,4.50
2023-01-25T10:52:26.325Z,4.50
2023-01-25T10:55:12.007Z,4.30
2023-01-25T10:57:43.392Z,4.40
2023-01-25T11:00:23.517Z,4.50
2023-01-25T11:02:50.276Z,4.50
2023-01-25T11:05:39.382Z,4.10
2023-01-25T11:08:35.340Z,4.20
2023-01-25T11:11:25.748Z,4.20
2023-01-25T11:13:56.732Z,4.20
2023-01-25T11:16:30.864Z,4.30
2023-01-25T11:18:59.102Z,4.30
2023-01-25T11:21:31.244Z,4.30
2023-01-25T11:24:03.541Z,4.40
2023-01-25T11:26:31.842Z,4.30
2023-01-25T11:29:21.812Z,4.40
2023-01-25T11:31:53.641Z,3.90
2023-01-25T11:34:25.808Z,3.90
2023-01-25T11:37:19.452Z,4.20
2023-01-25T11:40:15.803Z,4.20
2023-01-25T11:42:58.490Z,4.30
2023-01-25T11:46:02.653Z,4.20
2023-01-25T11:49:08.105Z,4.00
2023-01-25T11:51:50.997Z,4.00
2023-01-25T11:54:55.606Z,4.10
2023-01-25T11:57:34.384Z,4.00
2023-01-25T12:00:01.014Z,4.20
2023-01-25T12:02:33.398Z,4.40
2023-01-25T12:05:21.146Z,4.50
2023-01-25T12:07:59.887Z,4.50
2023-01-25T12:10:51.186Z,4.60
2023-01-25T12:13:49.050Z,4.40
2023-01-25T12:16:32.632Z,4.30
2023-01-25T12:19:36.877Z,4.30
2023-01-25T12:22:35.299Z,4.10
2023-01-25T12:25:21.310Z,4.10
2023-01-25T12:28:14.838Z,4.30
2023-01-25T12:30:50.501Z,4.10
2023-01-25T12:33:36.275Z,4.30
2023-01-25T12:36:18.973Z,4.60
2023-01-25T12:39:10.644Z,4.70
2023-01-25T12:41:43.331Z,4.60
2023-01-25T12:44:27.610Z,4.70
2023-01-25T12:47:12.006Z,4.70
2023-01-25T12:49:55.629Z,4.60
2023-01-25T12:53:06.257Z,4.50
2023-01-25T12:55:33.416Z,4.50
2023-01-25T12:58:32.883Z,4.70
2023-01-25T13:01:35.781Z,4.50
2023-01-25T13:04:25.764Z,4.60
2023-01-25T13:07:10.988Z,4.60
2023-01-25T13:10:01.406Z,4.70
2023-01-25T13:12:28.113Z,4.40
2023-01-25T13:14:54.812Z,4.40
2023-01-25T13:17:27.485Z,4.40
2023-01-25T13:19:54.375Z,4.40
2023-01-25T13:23:00.075Z,4.20
2023-01-25T13:25:27.488Z,4.00
2023-01-25T13:28:32.662Z,4.20
2023-01-25T13:30:59.382Z,4.20
2023-01-25T13:33:35.599Z,4.20
2023-01-25T13:36:39.877Z,4.10
2023-01-25T13:39:35.944Z,3.80
2023-01-25T13:42:11.800Z,3.80
2023-01-25T13:44:44.384Z,3.90
2023-01-25T13:47:32.554Z,4.00
2023-01-25T13:50:14.622Z,4.20
2023-01-25T13:53:00.418Z,4.00
2023-01-25T13:55:28.203Z,4.20
2023-01-25T13:58:25.763Z,4.00
2023-01-25T14:00:56.836Z,4.10
2023-01-25T14:03:29.766Z,4.10
2023-01-25T14:05:59.213Z,4.00
2023-01-25T14:08:27.339Z,4.10
2023-01-25T14:10:54.966Z,4.20
2023-01-25T14:13:22.006Z,4.30
2023-01-25T14:15:59.611Z,4.30
2023-01-25T14:18:34.568Z,4.40
2023-01-25T14:21:11.750Z,4.30
2023-01-25T14:23:38.831Z,4.10
2023-01-25T14:26:20.180Z,4.10
2023-01-25T14:29:01.952Z,4.10
2023-01-25T14:31:35.786Z,4.10
2023-01-25T14:34:04.646Z,4.20
2023-01-25T14:36:34.404Z,4.00
2023-01-25T14:39:03.316Z,4.00
2023-01-25T14:41:40.138Z,3.90
2023-01-25T14:44:13.402Z,4.10
2023-01-25T14:46:41.129Z,4.20
2023-01-25T14:49:11.549Z,4.30
2023-01-25T14:51:45.861Z,4.20
2023-01-25T14:54:18.714Z,4.20
2023-01-25T14:56:53.368Z,4.30
2023-01-25T14:59:23.062Z,4.30
2023-01-25T15:01:51.498Z,4.10
2023-01-25T15:04:18.523Z,4.00
2023-01-25T15:06:47.683Z,4.00
2023-01-25T15:09:40.344Z,3.90
2023-01-25T15:12:16.254Z,3.80
2023-01-25T15:14:51.322Z,3.90
2023-01-25T15:17:40.674Z,4.10
2023-01-25T15:20:27.971Z,4.00
2023-01-25T15:22:56.050Z,3.90
2023-01-25T15:25:24.402Z,4.10
2023-01-25T15:27:51.553Z,4.20
2023-01-25T15:30:19.182Z,4.30
2023-01-25T15:32:46.738Z,4.10
2023-01-25T15:35:15.607Z,4.00
2023-01-25T15:37:42.272Z,4.00
2023-01-25T15:40:10.889Z,4.10
2023-01-25T15:42:37.977Z,4.00
2023-01-25T15:45:06.897Z,3.90
2023-01-25T15:47:33.643Z,3.80
2023-01-25T15:50:00.386Z,3.90
2023-01-25T15:52:27.313Z,3.90
2023-01-25T15:55:01.435Z,4.00
2023-01-25T15:57:32.012Z,4.10
2023-01-25T16:00:01.146Z,4.00
2023-01-25T16:02:28.781Z,4.00
2023-01-25T16:04:55.451Z,3.80
2023-01-25T16:07:28.663Z,3.70
2023-01-25T16:09:55.309Z,3.70
2023-01-25T16:12:22.303Z,3.70
2023-01-25T16:14:48.928Z,3.70
2023-01-25T16:17:21.975Z,3.80
2023-01-25T16:19:48.713Z,3.70
2023-01-25T16:22:16.208Z,3.60
2023-01-25T16:24:44.061Z,3.70
2023-01-25T16:27:18.292Z,3.70
2023-01-25T16:29:44.884Z,3.60
2023-01-25T16:32:12.420Z,3.30
2023-01-25T16:34:39.123Z,3.30
2023-01-25T16:37:06.057Z,3.30
2023-01-25T16:39:32.986Z,3.10
2023-01-25T16:41:59.669Z,3.20
2023-01-25T16:44:26.298Z,3.00
2023-01-25T16:46:52.973Z,3.00
2023-01-25T16:49:27.618Z,3.00
2023-01-25T16:51:55.549Z,3.00
2023-01-25T16:54:23.396Z,3.00
2023-01-25T16:56:51.225Z,3.10
2023-01-25T16:59:18.751Z,3.00
2023-01-25T17:01:46.322Z,3.10
2023-01-25T17:04:13.643Z,3.20
2023-01-25T17:06:46.212Z,3.30
2023-01-25T17:09:25.286Z,3.40
2023-01-25T17:11:53.590Z,3.50
2023-01-25T17:14:21.501Z,3.60
2023-01-25T17:16:51.263Z,3.60
2023-01-25T17:19:18.532Z,3.60
2023-01-25T17:21:45.818Z,3.50
2023-01-25T17:24:18.813Z,3.60
2023-01-25T17:26:45.585Z,3.60
2023-01-25T17:29:13.730Z,3.80
2023-01-25T17:31:42.012Z,3.80
2023-01-25T17:34:13.199Z,3.70
2023-01-25T17:36:39.997Z,3.80
2023-01-25T17:39:07.709Z,3.80
2023-01-25T17:41:34.707Z,3.60
2023-01-25T17:44:01.828Z,3.50
2023-01-25T17:46:33.023Z,3.20
2023-01-25T17:49:02.147Z,3.30
2023-01-25T17:51:29.317Z,3.40
2023-01-25T17:53:57.167Z,3.50
2023-01-25T17:56:23.969Z,3.60
2023-01-25T17:58:50.672Z,3.60
2023-01-25T18:01:23.273Z,3.50
2023-01-25T18:03:51.909Z,3.60
2023-01-25T18:06:21.605Z,3.70
2023-01-25T18:08:50.466Z,3.60
2023-01-25T18:11:24.553Z,3.60
2023-01-25T18:13:55.481Z,3.70
2023-01-25T18:16:23.916Z,3.80
2023-01-25T18:18:53.042Z,3.70
2023-01-25T18:21:24.154Z,3.70
2023-01-25T18:23:53.584Z,3.70
2023-01-25T18:26:23.224Z,3.70
2023-01-25T18:28:52.068Z,3.70
2023-01-25T18:31:19.294Z,3.70
2023-01-25T18:33:46.100Z,3.70
2023-01-25T18:36:17.457Z,3.80
2023-01-25T18:38:44.945Z,3.90
2023-01-25T18:41:12.376Z,3.80
2023-01-25T18:43:39.083Z,3.80
2023-01-25T18:46:06.470Z,3.80
2023-01-25T18:48:33.499Z,3.90
2023-01-25T18:51:08.222Z,3.80
2023-01-25T18:53:36.319Z,3.80
2023-01-25T18:56:04.629Z,3.80
2023-01-25T18:58:33.207Z,3.80
2023-01-25T19:01:16.013Z,3.90
2023-01-25T19:03:43.905Z,3.90
2023-01-25T19:06:11.261Z,3.90
2023-01-25T19:08:43.017Z,3.90
2023-01-25T19:11:14.652Z,4.00
2023-01-25T19:13:42.361Z,3.90
2023-01-25T19:16:12.467Z,3.80
2023-01-25T19:18:45.868Z,3.80
2023-01-25T19:21:14.656Z,3.90
2023-01-25T19:23:41.854Z,3.90
2023-01-25T19:26:12.189Z,3.90
2023-01-25T19:28:39.196Z,3.90
2023-01-25T19:31:11.219Z,3.90
2023-01-25T19:33:38.490Z,3.90
2023-01-25T19:36:07.535Z,3.90
2023-01-25T19:38:38.507Z,3.80
2023-01-25T19:41:06.740Z,3.90
2023-01-25T19:43:33.461Z,3.80
2023-01-25T19:46:11.927Z,3.70
2023-01-25T19:48:40.369Z,3.70
2023-01-25T19:51:22.600Z,3.80
2023-01-25T19:53:59.910Z,3.80
2023-01-25T19:56:28.579Z,3.80
2023-01-25T19:58:55.473Z,3.80
2023-01-25T20:01:24.450Z,3.80
2023-01-25T20:03:51.703Z,3.80
2023-01-25T20:06:20.141Z,3.80
2023-01-25T20:08:47.798Z,3.70
2023-01-25T20:11:17.409Z,3.80
2023-01-25T20:13:44.143Z,3.80
2023-01-25T20:16:11.986Z,3.80
2023-01-25T20:18:39.249Z,3.80
2023-01-25T20:21:10.042Z,3.70
2023-01-25T20:23:39.093Z,3.80
2023-01-25T20:26:08.967Z,3.80
2023-01-25T20:28:37.100Z,3.70
2023-01-25T20:31:04.691Z,3.80
2023-01-25T20:33:34.802Z,3.70
2023-01-25T20:36:03.454Z,3.70
2023-01-25T20:38:34.624Z,3.60
2023-01-25T20:41:07.657Z,3.60
2023-01-25T20:43:34.765Z,3.60
2023-01-25T20:46:02.518Z,3.60
2023-01-25T20:48:29.749Z,3.70
2023-01-25T20:51:10.390Z,3.60
2023-01-25T20:53:37.153Z,3.60
2023-01-25T20:56:04.111Z,3.70
2023-01-25T20:58:30.967Z,3.70
2023-01-25T21:00:57.889Z,3.50
2023-01-25T21:03:24.823Z,3.50
2023-01-25T21:05:56.946Z,3.50
2023-01-25T21:08:24.933Z,3.60
2023-01-25T21:10:54.464Z,3.50
2023-01-25T21:13:21.931Z,3.60
2023-01-25T21:16:07.311Z,3.60
2023-01-25T21:18:36.603Z,3.60
2023-01-25T21:21:12.006Z,3.50
2023-01-25T21:23:41.250Z,3.40
2023-01-25T21:26:10.532Z,3.40
2023-01-25T21:28:37.291Z,3.40
2023-01-25T21:31:25.650Z,3.40
2023-01-25T21:33:53.441Z,3.50
2023-01-25T21:36:21.139Z,3.50
2023-01-25T21:38:50.274Z,3.50
2023-01-25T21:41:25.124Z,3.50
2023-01-25T21:44:11.787Z,3.50
2023-01-25T21:46:39.160Z,3.60
2023-01-25T21:49:27.159Z,3.60
2023-01-25T21:51:56.106Z,3.60
2023-01-25T21:54:24.838Z,3.50
2023-01-25T21:56:54.626Z,3.50
2023-01-25T21:59:21.926Z,3.40
2023-01-25T22:01:49.642Z,3.50
2023-01-25T22:04:18.304Z,3.50
2023-01-25T22:06:45.615Z,3.30
2023-01-25T22:09:15.714Z,3.30
2023-01-25T22:11:45.715Z,3.30
2023-01-25T22:14:13.468Z,3.30
2023-01-25T22:16:40.547Z,3.30
2023-01-25T22:19:07.457Z,3.40
2023-01-25T22:21:34.281Z,3.40
2023-01-25T22:24:03.028Z,3.40
2023-01-25T22:26:59.483Z,3.30
2023-01-25T22:29:27.013Z,3.30
2023-01-25T22:31:53.752Z,3.30
2023-01-25T22:34:20.456Z,3.30
2023-01-25T22:36:48.549Z,3.30
2023-01-25T22:39:15.492Z,3.40
2023-01-25T22:41:42.319Z,3.50
2023-01-25T22:44:09.892Z,3.50
2023-01-25T22:46:37.138Z,3.50
2023-01-25T22:49:04.792Z,3.50
2023-01-25T22:51:32.284Z,3.50
2023-01-25T22:54:00.003Z,3.50
2023-01-25T22:56:32.055Z,3.30
2023-01-25T22:58:59.590Z,3.30
2023-01-25T23:01:32.023Z,3.20
2023-01-25T23:03:59.516Z,3.20
2023-01-25T23:06:28.812Z,3.20
2023-01-25T23:09:00.410Z,3.20
2023-01-25T23:11:46.895Z,3.10
2023-01-25T23:14:32.054Z,3.20
2023-01-25T23:17:24.816Z,3.20
2023-01-25T23:19:51.500Z,3.20
2023-01-25T23:22:18.229Z,3.20
2023-01-25T23:24:44.958Z,3.20
2023-01-25T23:27:12.506Z,3.10
2023-01-25T23:29:39.210Z,3.10
2023-01-25T23:32:06.107Z,3.10
2023-01-25T23:34:35.564Z,3.20
2023-01-25T23:37:02.911Z,3.30
2023-01-25T23:39:29.618Z,3.30
2023-01-25T23:41:56.258Z,3.30
2023-01-25T23:44:22.985Z,3.30
2023-01-25T23:46:50.296Z,3.30
2023-01-25T23:49:17.290Z,3.20
2023-01-25T23:51:43.993Z,3.20
2023-01-25T23:54:10.856Z,3.20
2023-01-25T23:56:37.638Z,3.20
2023-01-25T23:59:04.837Z,3.30
